createdAt,value
2023-07-10T00:01:59.896Z,9.30
2023-07-10T00:04:28.270Z,6.00
2023-07-10T00:06:56.717Z,5.00
2023-07-10T00:09:25.159Z,6.00
2023-07-10T00:11:53.697Z,6.00
2023-07-10T00:14:25.491Z,5.10
2023-07-10T00:16:54.279Z,5.10
2023-07-10T00:19:24.515Z,7.40
2023-07-10T00:21:53.331Z,5.00
2023-07-10T00:24:21.799Z,6.00
2023-07-10T00:26:50.237Z,6.10
2023-07-10T00:29:33.098Z,6.20
2023-07-10T00:32:12.025Z,7.50
2023-07-10T00:34:40.421Z,6.10
2023-07-10T00:37:10.062Z,6.20
2023-07-10T00:39:39.239Z,7.10
2023-07-10T00:42:23.684Z,5.80
2023-07-10T00:44:59.475Z,5.80
2023-07-10T00:47:42.225Z,5.20
2023-07-10T00:50:22.645Z,5.60
2023-07-10T00:52:51.333Z,6.10
2023-07-10T00:55:29.865Z,5.20
2023-07-10T00:58:30.471Z,5.30
2023-07-10T01:01:17.996Z,5.30
2023-07-10T01:03:53.019Z,4.90
2023-07-10T01:06:29.192Z,5.60
2023-07-10T01:09:04.121Z,5.50
2023-07-10T01:11:36.022Z,5.50
2023-07-10T01:14:10.199Z,6.90
2023-07-10T01:16:39.034Z,4.90
2023-07-10T01:19:15.730Z,5.50
2023-07-10T01:21:44.295Z,6.90
2023-07-10T01:24:12.765Z,6.40
2023-07-10T01:26:41.814Z,6.30
2023-07-10T01:29:24.310Z,6.40
2023-07-10T01:31:55.908Z,11.00
2023-07-10T01:34:36.815Z,7.80
2023-07-10T01:37:07.284Z,6.90
2023-07-10T01:39:48.291Z,12.40
2023-07-10T01:42:17.481Z,7.50
2023-07-10T01:44:48.880Z,6.20
2023-07-10T01:47:17.650Z,6.90
2023-07-10T01:49:56.339Z,7.90
2023-07-10T01:52:26.168Z,6.40
2023-07-10T01:54:57.259Z,10.00
2023-07-10T01:57:27.288Z,5.90
2023-07-10T01:59:56.055Z,7.60
2023-07-10T02:02:24.558Z,7.40
2023-07-10T02:04:54.407Z,7.40
2023-07-10T02:07:22.834Z,8.10
2023-07-10T02:09:51.198Z,6.00
2023-07-10T02:12:19.581Z,8.20
2023-07-10T02:14:48.051Z,7.00
2023-07-10T02:17:16.488Z,9.70
2023-07-10T02:19:44.926Z,6.00
2023-07-10T02:22:13.326Z,6.40
2023-07-10T02:24:43.185Z,6.40
2023-07-10T02:27:11.769Z,8.40
2023-07-10T02:29:40.114Z,7.60
2023-07-10T02:32:09.149Z,6.70
2023-07-10T02:34:37.559Z,6.70
2023-07-10T02:37:06.322Z,6.00
2023-07-10T02:39:34.731Z,6.80
2023-07-10T02:42:03.235Z,6.30
2023-07-10T02:44:31.587Z,6.00
2023-07-10T02:46:59.944Z,9.30
2023-07-10T02:49:28.385Z,6.20
2023-07-10T02:51:56.710Z,8.10
2023-07-10T02:54:25.186Z,6.70
2023-07-10T02:56:53.538Z,7.20
2023-07-10T02:59:28.493Z,6.40
2023-07-10T03:01:57.131Z,6.40
2023-07-10T03:04:25.761Z,5.70
2023-07-10T03:06:54.194Z,7.40
2023-07-10T03:09:22.585Z,6.60
2023-07-10T03:11:51.037Z,5.70
2023-07-10T03:14:19.508Z,6.80
2023-07-10T03:16:48.934Z,6.50
2023-07-10T03:19:17.278Z,7.40
2023-07-10T03:21:46.489Z,6.60
2023-07-10T03:24:14.856Z,6.70
2023-07-10T03:26:43.308Z,8.40
2023-07-10T03:29:14.151Z,7.20
2023-07-10T03:31:44.137Z,5.80
2023-07-10T03:34:13.638Z,6.90
2023-07-10T03:36:43.193Z,6.40
2023-07-10T03:39:14.170Z,6.30
2023-07-10T03:41:42.747Z,7.70
2023-07-10T03:44:11.689Z,6.80
2023-07-10T03:46:40.472Z,6.10
2023-07-10T03:49:08.997Z,12.80
2023-07-10T03:51:37.452Z,8.80
2023-07-10T03:54:06.459Z,8.90
2023-07-10T03:56:36.056Z,11.10
2023-07-10T03:59:10.269Z,13.30
2023-07-10T04:01:40.248Z,9.70
2023-07-10T04:04:08.735Z,11.00
2023-07-10T04:06:37.242Z,8.60
2023-07-10T04:09:05.851Z,9.50
2023-07-10T04:11:34.249Z,8.50
2023-07-10T04:14:02.767Z,8.00
2023-07-10T04:16:31.679Z,9.60
2023-07-10T04:19:00.146Z,7.90
2023-07-10T04:21:32.430Z,8.70
2023-07-10T04:24:00.836Z,9.40
2023-07-10T04:26:32.524Z,8.40
2023-07-10T04:29:05.238Z,9.10
2023-07-10T04:31:34.626Z,7.60
2023-07-10T04:34:03.410Z,7.90
2023-07-10T04:36:31.798Z,9.20
2023-07-10T04:39:00.187Z,8.40
2023-07-10T04:41:28.756Z,10.10
2023-07-10T04:43:57.200Z,8.70
2023-07-10T04:46:25.582Z,10.00
2023-07-10T04:48:54.028Z,10.30
2023-07-10T04:51:22.435Z,9.80
2023-07-10T04:53:51.112Z,9.90
2023-07-10T04:56:20.522Z,8.30
2023-07-10T04:58:53.288Z,10.20
2023-07-10T05:01:35.868Z,9.50
2023-07-10T05:04:04.692Z,9.90
2023-07-10T05:06:33.284Z,10.20
2023-07-10T05:09:01.678Z,12.20
2023-07-10T05:11:32.497Z,12.30
2023-07-10T05:14:01.380Z,12.00
2023-07-10T05:16:32.265Z,11.40
2023-07-10T05:19:01.014Z,10.10
2023-07-10T05:21:29.399Z,10.40
2023-07-10T05:23:57.766Z,12.60
2023-07-10T05:26:26.389Z,12.50
2023-07-10T05:28:54.772Z,11.10
2023-07-10T05:31:23.244Z,12.10
2023-07-10T05:33:52.257Z,10.10
2023-07-10T05:36:20.740Z,11.80
2023-07-10T05:38:49.753Z,11.10
2023-07-10T05:41:21.623Z,12.10
2023-07-10T05:43:50.152Z,12.90
2023-07-10T05:46:21.431Z,11.50
2023-07-10T05:48:49.848Z,11.60
2023-07-10T05:51:18.192Z,12.20
2023-07-10T05:53:46.573Z,12.60
2023-07-10T05:56:14.985Z,12.90
2023-07-10T05:58:43.464Z,12.90
2023-07-10T06:01:12.347Z,9.80
2023-07-10T06:03:40.953Z,11.80
2023-07-10T06:06:09.856Z,11.30
2023-07-10T06:08:38.626Z,11.50
2023-07-10T06:11:09.494Z,9.90
2023-07-10T06:13:38.017Z,11.10
2023-07-10T06:16:10.341Z,9.30
2023-07-10T06:18:40.505Z,9.80
2023-07-10T06:21:11.521Z,9.70
2023-07-10T06:23:39.952Z,9.40
2023-07-10T06:26:09.111Z,8.00
2023-07-10T06:28:37.610Z,8.90
2023-07-10T06:31:12.021Z,8.10
2023-07-10T06:33:40.744Z,9.00
2023-07-10T06:36:10.884Z,9.70
2023-07-10T06:38:39.700Z,9.40
2023-07-10T06:41:08.847Z,9.90
2023-07-10T06:43:37.380Z,8.20
2023-07-10T06:46:06.722Z,10.20
2023-07-10T06:48:35.485Z,10.50
2023-07-10T06:51:06.222Z,10.40
2023-07-10T06:53:34.843Z,10.70
2023-07-10T06:56:04.061Z,9.50
2023-07-10T06:58:34.414Z,10.00
2023-07-10T07:01:04.735Z,10.10
2023-07-10T07:03:33.574Z,8.50
2023-07-10T07:06:07.720Z,11.10
2023-07-10T07:08:37.086Z,8.90
2023-07-10T07:11:05.566Z,9.20
2023-07-10T07:13:34.058Z,10.00
2023-07-10T07:16:03.059Z,8.50
2023-07-10T07:18:34.523Z,9.80
2023-07-10T07:21:03.547Z,7.90
2023-07-10T07:23:32.227Z,8.30
2023-07-10T07:26:00.557Z,8.70
2023-07-10T07:28:28.983Z,7.60
2023-07-10T07:31:06.049Z,15.30
2023-07-10T07:33:34.845Z,6.90
2023-07-10T07:36:05.578Z,7.80
2023-07-10T07:38:34.995Z,6.80
2023-07-10T07:41:03.397Z,7.30
2023-07-10T07:43:31.734Z,7.50
2023-07-10T07:46:00.256Z,7.00
2023-07-10T07:48:28.781Z,6.80
2023-07-10T07:51:04.406Z,10.90
2023-07-10T07:53:36.982Z,17.20
2023-07-10T07:56:06.236Z,8.20
2023-07-10T07:58:35.673Z,10.60
2023-07-10T08:01:04.636Z,6.90
2023-07-10T08:03:33.888Z,7.00
2023-07-10T08:06:04.356Z,6.30
2023-07-10T08:08:33.508Z,6.50
2023-07-10T08:11:01.970Z,6.40
2023-07-10T08:13:31.570Z,6.70
2023-07-10T08:16:00.118Z,5.50
2023-07-10T08:18:28.878Z,7.10
2023-07-10T08:21:09.519Z,5.80
2023-07-10T08:23:38.416Z,5.90
2023-07-10T08:26:08.529Z,6.70
2023-07-10T08:28:37.108Z,5.20
2023-07-10T08:31:05.724Z,6.20
2023-07-10T08:33:34.223Z,7.10
2023-07-10T08:36:06.676Z,5.80
2023-07-10T08:38:38.181Z,7.50
2023-07-10T08:41:21.895Z,5.10
2023-07-10T08:43:50.489Z,5.40
2023-07-10T08:46:25.987Z,6.00
2023-07-10T08:48:55.493Z,5.80
2023-07-10T08:52:08.476Z,6.20
2023-07-10T08:54:37.026Z,6.10
2023-07-10T08:57:34.955Z,5.50
2023-07-10T09:00:10.708Z,5.80
2023-07-10T09:02:44.561Z,4.80
2023-07-10T09:05:31.651Z,5.60
2023-07-10T09:08:11.506Z,5.90
2023-07-10T09:10:48.139Z,5.60
2023-07-10T09:13:28.341Z,6.90
2023-07-10T09:15:58.920Z,5.90
2023-07-10T09:18:39.727Z,6.60
2023-07-10T09:21:26.319Z,6.40
2023-07-10T09:23:54.745Z,6.70
2023-07-10T09:26:33.374Z,6.20
2023-07-10T09:29:10.693Z,6.90
2023-07-10T09:31:56.770Z,7.30
2023-07-10T09:34:31.105Z,7.30
2023-07-10T09:39:33.698Z,6.20
2023-07-10T09:42:05.119Z,6.90
2023-07-10T09:44:48.254Z,6.00
2023-07-10T09:47:18.180Z,6.20
2023-07-10T09:49:53.236Z,8.50
2023-07-10T09:52:33.530Z,6.00
2023-07-10T09:55:14.711Z,6.50
2023-07-10T09:58:01.266Z,6.50
2023-07-10T10:00:34.443Z,7.60
2023-07-10T10:03:16.293Z,6.90
